Boundary Bay Airport


Codes: CZBB/YDT
Name: Boundary Bay Airport
City: Vancouver
Country: Canada
Elevation: 6 ft.
Wikipedia:

Photos at Boundary Bay Airport


   Photos courtesy of SpottingLog. You can add your own sightings and photos by signing up for a free trial today.



No photos found.

Weather at Boundary Bay Airport


Time (UTC)DescriptionTempratureWindCloud coverageVisibilityPressureHumidity
17-Jun-2024 06:00Overcast Clouds12°C4 mph, E100%10000m1015hPa79%
17-Jun-2024 09:00Overcast Clouds11°C7 mph, NE94%10000m1015hPa81%
17-Jun-2024 12:00Broken Clouds10°C7 mph, E80%10000m1016hPa84%
17-Jun-2024 15:00Broken Clouds10°C7 mph, SE63%10000m1016hPa77%
17-Jun-2024 18:00Broken Clouds12°C7 mph, SE82%10000m1017hPa77%
17-Jun-2024 21:00Overcast Clouds12°C9 mph, SE100%10000m1017hPa78%
18-Jun-2024 00:00Overcast Clouds14°C7 mph, SE100%10000m1017hPa70%
18-Jun-2024 03:00Overcast Clouds13°C7 mph, E99%10000m1017hPa76%
18-Jun-2024 06:00Overcast Clouds12°C7 mph, E98%10000m1017hPa80%
18-Jun-2024 09:00Broken Clouds11°C7 mph, E84%10000m1017hPa86%
18-Jun-2024 12:00Broken Clouds10°C7 mph, E73%10000m1017hPa86%
18-Jun-2024 15:00Few Clouds13°C7 mph, SE20%10000m1017hPa77%
18-Jun-2024 18:00Few Clouds14°C4 mph, S23%10000m1017hPa74%
18-Jun-2024 21:00Scattered Clouds14°C4 mph, SW34%10000m1017hPa70%
19-Jun-2024 00:00Few Clouds15°C4 mph, W22%10000m1016hPa64%
19-Jun-2024 03:00Clear Sky15°C2 mph, SW0%10000m1015hPa67%
19-Jun-2024 06:00Clear Sky14°C2 mph, E0%10000m1016hPa72%
19-Jun-2024 09:00Clear Sky11°C4 mph, E0%10000m1016hPa81%
19-Jun-2024 12:00Clear Sky10°C4 mph, NE0%10000m1016hPa84%
19-Jun-2024 15:00Clear Sky13°C2 mph, NW0%10000m1016hPa74%
19-Jun-2024 18:00Clear Sky16°C9 mph, W0%10000m1016hPa72%
19-Jun-2024 21:00Clear Sky17°C9 mph, W0%10000m1015hPa68%
20-Jun-2024 00:00Clear Sky18°C7 mph, W0%10000m1013hPa62%
20-Jun-2024 03:00Clear Sky17°C9 mph, W0%10000m1012hPa72%
20-Jun-2024 06:00Clear Sky15°C7 mph, NW1%10000m1013hPa72%
20-Jun-2024 09:00Few Clouds14°C2 mph, NE15%10000m1014hPa72%
20-Jun-2024 12:00Scattered Clouds13°C2 mph, E37%10000m1014hPa74%
20-Jun-2024 15:00Clear Sky15°C2 mph, W2%10000m1014hPa69%
20-Jun-2024 18:00Clear Sky17°C7 mph, W1%10000m1014hPa65%
20-Jun-2024 21:00Clear Sky18°C9 mph, W0%10000m1013hPa61%
21-Jun-2024 00:00Clear Sky20°C9 mph, W0%10000m1011hPa58%
21-Jun-2024 03:00Clear Sky18°C7 mph, W0%10000m1010hPa70%
21-Jun-2024 06:00Clear Sky16°C2 mph, SE0%10000m1011hPa73%
21-Jun-2024 09:00Clear Sky14°C4 mph, SE0%10000m1011hPa78%
21-Jun-2024 12:00Clear Sky13°C2 mph, E4%10000m1012hPa75%
21-Jun-2024 15:00Overcast Clouds15°C7 mph, SE92%10000m1013hPa73%
21-Jun-2024 18:00Overcast Clouds15°C4 mph, S97%10000m1013hPa75%
21-Jun-2024 21:00Broken Clouds17°C7 mph, SE71%10000m1012hPa67%
22-Jun-2024 00:00Overcast Clouds18°C7 mph, SE86%10000m1010hPa67%
22-Jun-2024 03:00Overcast Clouds16°C11 mph, SE100%10000m1009hPa76%